sensor_id;sensor_type;location;lat;lon;timestamp;P1;durP1;ratioP1;P2;durP2;ratioP2
41687;SDS011;27371;42.686;23.362;2022-11-15T00:00:32;87.90;;;54.25;;
41687;SDS011;27371;42.686;23.362;2022-11-15T00:02:58;85.43;;;52.60;;
41687;SDS011;27371;42.686;23.362;2022-11-15T00:05:24;82.30;;;49.80;;
41687;SDS011;27371;42.686;23.362;2022-11-15T00:07:50;85.47;;;48.38;;
41687;SDS011;27371;42.686;23.362;2022-11-15T00:10:15;78.93;;;46.35;;
41687;SDS011;27371;42.686;23.362;2022-11-15T00:12:40;78.60;;;48.40;;
41687;SDS011;27371;42.686;23.362;2022-11-15T00:15:06;77.13;;;47.92;;
41687;SDS011;27371;42.686;23.362;2022-11-15T00:17:32;72.00;;;43.97;;
41687;SDS011;27371;42.686;23.362;2022-11-15T00:19:57;74.47;;;44.38;;
41687;SDS011;27371;42.686;23.362;2022-11-15T00:22:23;71.03;;;44.00;;
41687;SDS011;27371;42.686;23.362;2022-11-15T00:24:48;72.95;;;43.78;;
41687;SDS011;27371;42.686;23.362;2022-11-15T00:27:14;69.00;;;43.00;;
41687;SDS011;27371;42.686;23.362;2022-11-15T00:29:39;72.57;;;43.78;;
41687;SDS011;27371;42.686;23.362;2022-11-15T00:32:08;72.68;;;42.47;;
41687;SDS011;27371;42.686;23.362;2022-11-15T00:34:35;73.35;;;44.42;;
41687;SDS011;27371;42.686;23.362;2022-11-15T00:37:00;71.03;;;44.08;;
41687;SDS011;27371;42.686;23.362;2022-11-15T00:39:26;67.07;;;42.65;;
41687;SDS011;27371;42.686;23.362;2022-11-15T00:41:51;69.00;;;43.45;;
41687;SDS011;27371;42.686;23.362;2022-11-15T00:44:17;67.00;;;41.30;;
41687;SDS011;27371;42.686;23.362;2022-11-15T00:46:43;72.88;;;43.45;;
41687;SDS011;27371;42.686;23.362;2022-11-15T00:49:08;70.50;;;43.83;;
41687;SDS011;27371;42.686;23.362;2022-11-15T00:51:34;71.40;;;43.40;;
41687;SDS011;27371;42.686;23.362;2022-11-15T00:54:00;69.47;;;42.90;;
41687;SDS011;27371;42.686;23.362;2022-11-15T00:56:25;73.97;;;43.40;;
41687;SDS011;27371;42.686;23.362;2022-11-15T00:58:51;72.53;;;43.63;;
41687;SDS011;27371;42.686;23.362;2022-11-15T01:04:06;70.38;;;40.42;;
41687;SDS011;27371;42.686;23.362;2022-11-15T01:06:31;73.22;;;41.40;;
41687;SDS011;27371;42.686;23.362;2022-11-15T01:08:57;64.85;;;40.60;;
41687;SDS011;27371;42.686;23.362;2022-11-15T01:11:22;66.95;;;40.63;;
41687;SDS011;27371;42.686;23.362;2022-11-15T01:13:48;63.85;;;40.78;;
41687;SDS011;27371;42.686;23.362;2022-11-15T01:16:14;70.20;;;40.22;;
41687;SDS011;27371;42.686;23.362;2022-11-15T01:18:44;70.78;;;41.22;;
41687;SDS011;27371;42.686;23.362;2022-11-15T01:21:11;69.15;;;40.65;;
41687;SDS011;27371;42.686;23.362;2022-11-15T01:23:39;66.38;;;40.47;;
41687;SDS011;27371;42.686;23.362;2022-11-15T01:26:06;69.50;;;41.65;;
41687;SDS011;27371;42.686;23.362;2022-11-15T01:28:33;75.00;;;41.47;;
41687;SDS011;27371;42.686;23.362;2022-11-15T01:31:01;68.10;;;41.17;;
41687;SDS011;27371;42.686;23.362;2022-11-15T01:33:28;66.07;;;41.33;;
41687;SDS011;27371;42.686;23.362;2022-11-15T01:35:54;71.13;;;40.95;;
41687;SDS011;27371;42.686;23.362;2022-11-15T01:38:20;69.05;;;40.40;;
41687;SDS011;27371;42.686;23.362;2022-11-15T01:40:45;62.10;;;38.60;;
41687;SDS011;27371;42.686;23.362;2022-11-15T01:43:21;62.30;;;38.22;;
41687;SDS011;27371;42.686;23.362;2022-11-15T01:45:56;64.50;;;38.63;;
41687;SDS011;27371;42.686;23.362;2022-11-15T01:48:28;59.72;;;37.88;;
41687;SDS011;27371;42.686;23.362;2022-11-15T01:50:58;57.40;;;37.95;;
41687;SDS011;27371;42.686;23.362;2022-11-15T01:53:26;63.25;;;38.65;;
41687;SDS011;27371;42.686;23.362;2022-11-15T01:55:52;59.75;;;37.63;;
41687;SDS011;27371;42.686;23.362;2022-11-15T01:58:18;60.95;;;37.65;;
41687;SDS011;27371;42.686;23.362;2022-11-15T02:00:44;62.85;;;38.10;;
41687;SDS011;27371;42.686;23.362;2022-11-15T02:03:10;63.85;;;39.78;;
41687;SDS011;27371;42.686;23.362;2022-11-15T02:05:36;60.58;;;38.92;;
41687;SDS011;27371;42.686;23.362;2022-11-15T02:08:02;63.03;;;38.67;;
41687;SDS011;27371;42.686;23.362;2022-11-15T02:10:27;61.92;;;39.20;;
41687;SDS011;27371;42.686;23.362;2022-11-15T02:12:53;64.07;;;39.13;;
41687;SDS011;27371;42.686;23.362;2022-11-15T02:15:21;58.83;;;36.53;;
41687;SDS011;27371;42.686;23.362;2022-11-15T02:18:02;61.33;;;37.78;;
41687;SDS011;27371;42.686;23.362;2022-11-15T02:23:57;65.45;;;39.92;;
41687;SDS011;27371;42.686;23.362;2022-11-15T02:35:07;72.70;;;44.28;;
41687;SDS011;27371;42.686;23.362;2022-11-15T02:37:51;65.47;;;40.22;;
41687;SDS011;27371;42.686;23.362;2022-11-15T02:42:53;67.80;;;39.58;;
41687;SDS011;27371;42.686;23.362;2022-11-15T02:45:45;73.63;;;44.97;;
41687;SDS011;27371;42.686;23.362;2022-11-15T02:48:16;78.18;;;45.63;;
41687;SDS011;27371;42.686;23.362;2022-11-15T02:50:43;90.25;;;56.00;;
41687;SDS011;27371;42.686;23.362;2022-11-15T02:53:10;100.65;;;60.50;;
41687;SDS011;27371;42.686;23.362;2022-11-15T02:55:41;100.13;;;60.65;;
41687;SDS011;27371;42.686;23.362;2022-11-15T02:58:23;110.20;;;66.10;;
41687;SDS011;27371;42.686;23.362;2022-11-15T03:09:33;102.70;;;46.55;;
41687;SDS011;27371;42.686;23.362;2022-11-15T03:13:07;126.63;;;50.65;;
41687;SDS011;27371;42.686;23.362;2022-11-15T03:15:01;116.35;;;51.60;;
41687;SDS011;27371;42.686;23.362;2022-11-15T03:17:38;107.63;;;50.97;;
41687;SDS011;27371;42.686;23.362;2022-11-15T03:20:12;98.63;;;51.13;;
41687;SDS011;27371;42.686;23.362;2022-11-15T03:22:42;101.78;;;52.17;;
41687;SDS011;27371;42.686;23.362;2022-11-15T03:25:10;101.82;;;49.15;;
41687;SDS011;27371;42.686;23.362;2022-11-15T03:27:41;114.93;;;51.58;;
41687;SDS011;27371;42.686;23.362;2022-11-15T03:30:11;121.07;;;57.78;;
41687;SDS011;27371;42.686;23.362;2022-11-15T03:32:39;122.60;;;55.40;;
41687;SDS011;27371;42.686;23.362;2022-11-15T03:35:11;118.40;;;51.38;;
41687;SDS011;27371;42.686;23.362;2022-11-15T03:37:41;135.55;;;51.78;;
41687;SDS011;27371;42.686;23.362;2022-11-15T03:43:18;135.63;;;49.42;;
41687;SDS011;27371;42.686;23.362;2022-11-15T03:45:55;123.97;;;51.95;;
41687;SDS011;27371;42.686;23.362;2022-11-15T03:48:28;120.35;;;54.72;;
41687;SDS011;27371;42.686;23.362;2022-11-15T03:50:58;104.25;;;49.05;;
41687;SDS011;27371;42.686;23.362;2022-11-15T03:53:24;113.53;;;52.15;;
41687;SDS011;27371;42.686;23.362;2022-11-15T03:55:50;131.00;;;54.80;;
41687;SDS011;27371;42.686;23.362;2022-11-15T03:58:15;116.00;;;51.90;;
41687;SDS011;27371;42.686;23.362;2022-11-15T04:00:41;96.88;;;50.33;;
41687;SDS011;27371;42.686;23.362;2022-11-15T04:03:07;104.15;;;51.92;;
41687;SDS011;27371;42.686;23.362;2022-11-15T04:05:33;125.43;;;50.35;;
41687;SDS011;27371;42.686;23.362;2022-11-15T04:07:58;96.18;;;49.45;;
41687;SDS011;27371;42.686;23.362;2022-11-15T04:10:24;115.00;;;50.40;;
41687;SDS011;27371;42.686;23.362;2022-11-15T04:12:49;92.63;;;48.55;;
41687;SDS011;27371;42.686;23.362;2022-11-15T04:15:16;93.93;;;47.75;;
41687;SDS011;27371;42.686;23.362;2022-11-15T04:17:44;93.00;;;47.42;;
41687;SDS011;27371;42.686;23.362;2022-11-15T04:20:21;81.93;;;45.55;;
41687;SDS011;27371;42.686;23.362;2022-11-15T04:23:11;80.65;;;45.80;;
41687;SDS011;27371;42.686;23.362;2022-11-15T04:26:14;76.45;;;43.78;;
41687;SDS011;27371;42.686;23.362;2022-11-15T04:28:42;78.00;;;43.47;;
41687;SDS011;27371;42.686;23.362;2022-11-15T04:31:26;66.40;;;42.42;;
41687;SDS011;27371;42.686;23.362;2022-11-15T04:33:52;66.45;;;41.10;;
41687;SDS011;27371;42.686;23.362;2022-11-15T04:36:17;61.78;;;37.83;;
41687;SDS011;27371;42.686;23.362;2022-11-15T04:39:02;62.92;;;37.92;;
41687;SDS011;27371;42.686;23.362;2022-11-15T04:41:28;58.45;;;37.90;;
41687;SDS011;27371;42.686;23.362;2022-11-15T04:43:54;59.58;;;37.08;;
41687;SDS011;27371;42.686;23.362;2022-11-15T04:46:20;53.85;;;34.83;;
41687;SDS011;27371;42.686;23.362;2022-11-15T04:48:46;49.92;;;33.60;;
41687;SDS011;27371;42.686;23.362;2022-11-15T04:51:11;50.75;;;33.83;;
41687;SDS011;27371;42.686;23.362;2022-11-15T04:53:37;52.15;;;32.25;;
41687;SDS011;27371;42.686;23.362;2022-11-15T04:56:02;51.28;;;33.80;;
41687;SDS011;27371;42.686;23.362;2022-11-15T04:58:28;51.28;;;33.58;;
41687;SDS011;27371;42.686;23.362;2022-11-15T05:00:53;49.83;;;31.98;;
41687;SDS011;27371;42.686;23.362;2022-11-15T05:03:18;57.20;;;30.67;;
41687;SDS011;27371;42.686;23.362;2022-11-15T05:06:03;57.38;;;30.02;;
41687;SDS011;27371;42.686;23.362;2022-11-15T05:08:28;56.45;;;31.20;;
41687;SDS011;27371;42.686;23.362;2022-11-15T05:10:54;50.97;;;30.65;;
41687;SDS011;27371;42.686;23.362;2022-11-15T05:13:20;59.38;;;32.00;;
41687;SDS011;27371;42.686;23.362;2022-11-15T05:15:46;56.33;;;27.80;;
41687;SDS011;27371;42.686;23.362;2022-11-15T05:18:12;54.78;;;27.85;;
41687;SDS011;27371;42.686;23.362;2022-11-15T05:20:38;55.95;;;30.40;;
41687;SDS011;27371;42.686;23.362;2022-11-15T05:23:03;77.55;;;27.92;;
41687;SDS011;27371;42.686;23.362;2022-11-15T05:25:29;54.25;;;27.90;;
41687;SDS011;27371;42.686;23.362;2022-11-15T05:27:55;55.83;;;27.88;;
41687;SDS011;27371;42.686;23.362;2022-11-15T05:30:20;55.97;;;29.63;;
41687;SDS011;27371;42.686;23.362;2022-11-15T05:32:46;62.50;;;29.48;;
41687;SDS011;27371;42.686;23.362;2022-11-15T05:35:13;54.33;;;29.98;;
41687;SDS011;27371;42.686;23.362;2022-11-15T05:37:50;70.90;;;27.77;;
41687;SDS011;27371;42.686;23.362;2022-11-15T05:40:16;72.68;;;25.67;;
41687;SDS011;27371;42.686;23.362;2022-11-15T05:42:42;64.68;;;25.10;;
41687;SDS011;27371;42.686;23.362;2022-11-15T05:45:08;124.18;;;39.95;;
41687;SDS011;27371;42.686;23.362;2022-11-15T05:47:34;92.10;;;41.22;;
41687;SDS011;27371;42.686;23.362;2022-11-15T05:50:03;62.20;;;31.25;;
41687;SDS011;27371;42.686;23.362;2022-11-15T05:52:29;53.90;;;26.52;;
41687;SDS011;27371;42.686;23.362;2022-11-15T05:54:58;94.20;;;42.20;;
41687;SDS011;27371;42.686;23.362;2022-11-15T05:57:24;87.57;;;38.13;;
41687;SDS011;27371;42.686;23.362;2022-11-15T05:59:50;76.93;;;34.03;;
41687;SDS011;27371;42.686;23.362;2022-11-15T06:02:16;72.45;;;36.70;;
41687;SDS011;27371;42.686;23.362;2022-11-15T06:04:42;70.45;;;31.27;;
41687;SDS011;27371;42.686;23.362;2022-11-15T06:07:07;55.88;;;26.63;;
41687;SDS011;27371;42.686;23.362;2022-11-15T06:09:33;55.55;;;28.30;;
41687;SDS011;27371;42.686;23.362;2022-11-15T06:11:58;57.22;;;27.98;;
41687;SDS011;27371;42.686;23.362;2022-11-15T06:14:24;63.47;;;31.08;;
41687;SDS011;27371;42.686;23.362;2022-11-15T06:16:49;55.80;;;25.80;;
41687;SDS011;27371;42.686;23.362;2022-11-15T06:19:15;59.85;;;28.75;;
41687;SDS011;27371;42.686;23.362;2022-11-15T06:21:40;53.45;;;26.27;;
41687;SDS011;27371;42.686;23.362;2022-11-15T06:24:06;52.13;;;25.15;;
41687;SDS011;27371;42.686;23.362;2022-11-15T06:26:32;52.53;;;24.25;;
41687;SDS011;27371;42.686;23.362;2022-11-15T06:28:57;47.08;;;23.90;;
41687;SDS011;27371;42.686;23.362;2022-11-15T06:31:24;48.35;;;24.33;;
41687;SDS011;27371;42.686;23.362;2022-11-15T06:33:50;50.17;;;25.20;;
41687;SDS011;27371;42.686;23.362;2022-11-15T06:36:15;54.75;;;25.38;;
41687;SDS011;27371;42.686;23.362;2022-11-15T06:38:42;48.75;;;24.75;;
41687;SDS011;27371;42.686;23.362;2022-11-15T06:41:11;55.88;;;27.15;;
41687;SDS011;27371;42.686;23.362;2022-11-15T06:43:38;53.17;;;26.10;;
41687;SDS011;27371;42.686;23.362;2022-11-15T06:46:04;48.15;;;23.70;;
41687;SDS011;27371;42.686;23.362;2022-11-15T06:48:31;58.35;;;26.25;;
41687;SDS011;27371;42.686;23.362;2022-11-15T06:50:58;50.67;;;24.50;;
41687;SDS011;27371;42.686;23.362;2022-11-15T06:53:24;48.95;;;24.10;;
41687;SDS011;27371;42.686;23.362;2022-11-15T06:55:51;49.13;;;24.05;;
41687;SDS011;27371;42.686;23.362;2022-11-15T06:58:17;58.50;;;26.35;;
41687;SDS011;27371;42.686;23.362;2022-11-15T07:00:43;44.80;;;24.45;;
41687;SDS011;27371;42.686;23.362;2022-11-15T07:03:08;45.22;;;22.98;;
41687;SDS011;27371;42.686;23.362;2022-11-15T07:05:35;52.85;;;22.58;;
41687;SDS011;27371;42.686;23.362;2022-11-15T07:08:01;39.45;;;21.58;;
41687;SDS011;27371;42.686;23.362;2022-11-15T07:10:27;55.08;;;25.80;;
41687;SDS011;27371;42.686;23.362;2022-11-15T07:12:54;53.60;;;25.67;;
41687;SDS011;27371;42.686;23.362;2022-11-15T07:15:21;51.58;;;27.13;;
41687;SDS011;27371;42.686;23.362;2022-11-15T07:17:48;54.30;;;26.92;;
41687;SDS011;27371;42.686;23.362;2022-11-15T07:20:14;51.53;;;27.08;;
41687;SDS011;27371;42.686;23.362;2022-11-15T07:22:40;51.88;;;26.48;;
41687;SDS011;27371;42.686;23.362;2022-11-15T07:25:06;62.60;;;29.63;;
41687;SDS011;27371;42.686;23.362;2022-11-15T07:27:32;56.80;;;27.48;;
41687;SDS011;27371;42.686;23.362;2022-11-15T07:29:58;58.53;;;27.85;;
41687;SDS011;27371;42.686;23.362;2022-11-15T07:32:23;70.07;;;32.20;;
41687;SDS011;27371;42.686;23.362;2022-11-15T07:34:49;84.07;;;36.00;;
41687;SDS011;27371;42.686;23.362;2022-11-15T07:37:14;71.68;;;35.83;;
41687;SDS011;27371;42.686;23.362;2022-11-15T07:39:41;56.17;;;30.42;;
41687;SDS011;27371;42.686;23.362;2022-11-15T07:42:07;65.57;;;31.50;;
41687;SDS011;27371;42.686;23.362;2022-11-15T07:44:52;65.90;;;32.88;;
41687;SDS011;27371;42.686;23.362;2022-11-15T07:47:18;65.50;;;34.95;;
41687;SDS011;27371;42.686;23.362;2022-11-15T07:49:43;78.07;;;38.17;;
41687;SDS011;27371;42.686;23.362;2022-11-15T07:52:11;70.28;;;36.08;;
41687;SDS011;27371;42.686;23.362;2022-11-15T07:54:37;64.60;;;34.05;;
41687;SDS011;27371;42.686;23.362;2022-11-15T07:57:02;61.72;;;34.72;;
41687;SDS011;27371;42.686;23.362;2022-11-15T07:59:28;64.80;;;36.08;;
41687;SDS011;27371;42.686;23.362;2022-11-15T08:01:53;61.15;;;32.95;;
41687;SDS011;27371;42.686;23.362;2022-11-15T08:04:19;63.20;;;34.50;;
41687;SDS011;27371;42.686;23.362;2022-11-15T08:06:44;60.33;;;31.70;;
41687;SDS011;27371;42.686;23.362;2022-11-15T08:09:11;58.35;;;32.60;;
41687;SDS011;27371;42.686;23.362;2022-11-15T08:11:36;65.78;;;33.85;;
41687;SDS011;27371;42.686;23.362;2022-11-15T08:14:02;71.28;;;35.72;;
41687;SDS011;27371;42.686;23.362;2022-11-15T08:16:27;62.20;;;34.83;;
41687;SDS011;27371;42.686;23.362;2022-11-15T08:18:53;63.78;;;33.72;;
41687;SDS011;27371;42.686;23.362;2022-11-15T08:21:19;59.47;;;34.80;;
41687;SDS011;27371;42.686;23.362;2022-11-15T08:23:45;54.58;;;32.95;;
41687;SDS011;27371;42.686;23.362;2022-11-15T08:26:11;61.83;;;33.72;;
41687;SDS011;27371;42.686;23.362;2022-11-15T08:28:37;61.33;;;34.45;;
41687;SDS011;27371;42.686;23.362;2022-11-15T08:31:03;59.13;;;32.55;;
41687;SDS011;27371;42.686;23.362;2022-11-15T08:33:29;55.30;;;31.65;;
41687;SDS011;27371;42.686;23.362;2022-11-15T08:35:56;56.35;;;33.15;;
41687;SDS011;27371;42.686;23.362;2022-11-15T08:38:22;61.40;;;34.20;;
41687;SDS011;27371;42.686;23.362;2022-11-15T08:40:48;61.55;;;34.75;;
41687;SDS011;27371;42.686;23.362;2022-11-15T08:43:17;62.53;;;34.45;;
41687;SDS011;27371;42.686;23.362;2022-11-15T08:45:43;71.50;;;38.03;;
41687;SDS011;27371;42.686;23.362;2022-11-15T08:48:09;74.57;;;40.33;;
41687;SDS011;27371;42.686;23.362;2022-11-15T08:50:34;78.68;;;40.08;;
41687;SDS011;27371;42.686;23.362;2022-11-15T08:53:04;66.63;;;37.65;;
41687;SDS011;27371;42.686;23.362;2022-11-15T08:55:31;77.55;;;40.35;;
41687;SDS011;27371;42.686;23.362;2022-11-15T08:57:57;71.57;;;40.05;;
41687;SDS011;27371;42.686;23.362;2022-11-15T09:00:22;66.85;;;38.90;;
41687;SDS011;27371;42.686;23.362;2022-11-15T09:02:48;78.97;;;41.67;;
41687;SDS011;27371;42.686;23.362;2022-11-15T09:05:14;70.45;;;40.72;;
41687;SDS011;27371;42.686;23.362;2022-11-15T09:07:40;75.45;;;41.63;;
41687;SDS011;27371;42.686;23.362;2022-11-15T09:10:06;69.45;;;40.75;;
41687;SDS011;27371;42.686;23.362;2022-11-15T09:12:32;84.00;;;45.83;;
41687;SDS011;27371;42.686;23.362;2022-11-15T09:14:57;87.30;;;46.33;;
41687;SDS011;27371;42.686;23.362;2022-11-15T09:17:23;83.75;;;45.35;;
41687;SDS011;27371;42.686;23.362;2022-11-15T09:19:48;80.85;;;44.75;;
41687;SDS011;27371;42.686;23.362;2022-11-15T09:22:14;80.63;;;43.33;;
41687;SDS011;27371;42.686;23.362;2022-11-15T09:24:40;85.18;;;46.88;;
41687;SDS011;27371;42.686;23.362;2022-11-15T09:27:05;89.53;;;47.55;;
41687;SDS011;27371;42.686;23.362;2022-11-15T09:29:31;91.05;;;49.55;;
41687;SDS011;27371;42.686;23.362;2022-11-15T09:31:56;102.55;;;54.35;;
41687;SDS011;27371;42.686;23.362;2022-11-15T09:34:22;98.55;;;54.72;;
41687;SDS011;27371;42.686;23.362;2022-11-15T09:36:47;102.55;;;54.78;;
41687;SDS011;27371;42.686;23.362;2022-11-15T09:39:13;96.75;;;53.97;;
41687;SDS011;27371;42.686;23.362;2022-11-15T09:41:48;99.53;;;53.83;;
41687;SDS011;27371;42.686;23.362;2022-11-15T09:49:15;97.82;;;50.75;;
41687;SDS011;27371;42.686;23.362;2022-11-15T09:51:46;95.25;;;53.38;;
41687;SDS011;27371;42.686;23.362;2022-11-15T09:59:43;90.40;;;51.63;;
41687;SDS011;27371;42.686;23.362;2022-11-15T10:04:42;93.20;;;51.10;;
41687;SDS011;27371;42.686;23.362;2022-11-15T10:09:59;94.22;;;54.10;;
41687;SDS011;27371;42.686;23.362;2022-11-15T10:12:29;92.63;;;52.90;;
41687;SDS011;27371;42.686;23.362;2022-11-15T10:15:06;90.93;;;52.85;;
41687;SDS011;27371;42.686;23.362;2022-11-15T10:20:25;87.07;;;51.15;;
41687;SDS011;27371;42.686;23.362;2022-11-15T10:22:53;91.82;;;55.40;;
41687;SDS011;27371;42.686;23.362;2022-11-15T10:25:28;91.70;;;53.78;;
41687;SDS011;27371;42.686;23.362;2022-11-15T10:28:01;85.85;;;52.47;;
41687;SDS011;27371;42.686;23.362;2022-11-15T10:30:35;83.60;;;53.03;;
41687;SDS011;27371;42.686;23.362;2022-11-15T10:33:24;86.00;;;52.88;;
41687;SDS011;27371;42.686;23.362;2022-11-15T10:38:49;97.85;;;60.60;;
41687;SDS011;27371;42.686;23.362;2022-11-15T10:41:17;98.20;;;60.85;;
41687;SDS011;27371;42.686;23.362;2022-11-15T10:46:31;97.53;;;59.33;;
41687;SDS011;27371;42.686;23.362;2022-11-15T10:49:17;102.78;;;60.47;;
41687;SDS011;27371;42.686;23.362;2022-11-15T10:51:47;97.40;;;57.67;;
41687;SDS011;27371;42.686;23.362;2022-11-15T10:54:17;86.72;;;54.28;;
41687;SDS011;27371;42.686;23.362;2022-11-15T10:56:54;90.00;;;52.85;;
41687;SDS011;27371;42.686;23.362;2022-11-15T10:59:29;95.43;;;54.53;;
41687;SDS011;27371;42.686;23.362;2022-11-15T11:01:58;82.07;;;50.58;;
41687;SDS011;27371;42.686;23.362;2022-11-15T11:04:24;83.22;;;52.38;;
41687;SDS011;27371;42.686;23.362;2022-11-15T11:06:51;85.15;;;50.70;;
41687;SDS011;27371;42.686;23.362;2022-11-15T11:09:36;75.95;;;49.33;;
41687;SDS011;27371;42.686;23.362;2022-11-15T11:12:05;87.03;;;49.85;;
41687;SDS011;27371;42.686;23.362;2022-11-15T11:14:35;82.35;;;50.03;;
41687;SDS011;27371;42.686;23.362;2022-11-15T11:22:34;84.72;;;48.88;;
41687;SDS011;27371;42.686;23.362;2022-11-15T11:25:12;85.65;;;50.85;;
41687;SDS011;27371;42.686;23.362;2022-11-15T11:33:42;84.85;;;50.50;;
41687;SDS011;27371;42.686;23.362;2022-11-15T11:39:06;81.72;;;47.10;;
41687;SDS011;27371;42.686;23.362;2022-11-15T11:44:18;78.38;;;47.10;;
41687;SDS011;27371;42.686;23.362;2022-11-15T11:47:20;79.03;;;47.80;;
41687;SDS011;27371;42.686;23.362;2022-11-15T11:49:57;75.90;;;48.38;;
41687;SDS011;27371;42.686;23.362;2022-11-15T11:52:56;71.30;;;45.20;;
41687;SDS011;27371;42.686;23.362;2022-11-15T11:55:27;68.50;;;43.67;;
41687;SDS011;27371;42.686;23.362;2022-11-15T12:01:32;68.32;;;43.58;;
41687;SDS011;27371;42.686;23.362;2022-11-15T12:03:59;68.10;;;43.72;;
41687;SDS011;27371;42.686;23.362;2022-11-15T12:09:14;67.13;;;43.50;;
41687;SDS011;27371;42.686;23.362;2022-11-15T12:14:51;68.45;;;44.13;;
41687;SDS011;27371;42.686;23.362;2022-11-15T12:17:20;69.90;;;43.75;;
41687;SDS011;27371;42.686;23.362;2022-11-15T12:19:49;72.07;;;44.97;;
41687;SDS011;27371;42.686;23.362;2022-11-15T12:22:21;70.05;;;45.60;;
41687;SDS011;27371;42.686;23.362;2022-11-15T12:25:02;71.60;;;45.00;;
41687;SDS011;27371;42.686;23.362;2022-11-15T12:27:37;69.28;;;45.65;;
41687;SDS011;27371;42.686;23.362;2022-11-15T12:30:17;79.80;;;47.30;;
41687;SDS011;27371;42.686;23.362;2022-11-15T12:32:53;71.65;;;46.30;;
41687;SDS011;27371;42.686;23.362;2022-11-15T12:35:25;76.43;;;46.38;;
41687;SDS011;27371;42.686;23.362;2022-11-15T12:37:54;77.32;;;48.28;;
41687;SDS011;27371;42.686;23.362;2022-11-15T12:40:22;69.10;;;46.22;;
41687;SDS011;27371;42.686;23.362;2022-11-15T12:42:57;80.15;;;46.85;;
41687;SDS011;27371;42.686;23.362;2022-11-15T12:45:42;70.65;;;46.42;;
41687;SDS011;27371;42.686;23.362;2022-11-15T13:02:15;79.88;;;46.83;;
41687;SDS011;27371;42.686;23.362;2022-11-15T13:09:57;77.85;;;50.90;;
41687;SDS011;27371;42.686;23.362;2022-11-15T13:12:10;82.40;;;50.72;;
41687;SDS011;27371;42.686;23.362;2022-11-15T13:33:16;73.00;;;48.58;;
41687;SDS011;27371;42.686;23.362;2022-11-15T13:35:46;79.70;;;49.35;;
41687;SDS011;27371;42.686;23.362;2022-11-15T13:40:49;73.10;;;48.08;;
41687;SDS011;27371;42.686;23.362;2022-11-15T13:48:32;76.38;;;48.50;;
41687;SDS011;27371;42.686;23.362;2022-11-15T13:51:05;75.00;;;48.80;;
41687;SDS011;27371;42.686;23.362;2022-11-15T13:53:54;77.25;;;47.47;;
41687;SDS011;27371;42.686;23.362;2022-11-15T13:56:27;72.60;;;47.93;;
41687;SDS011;27371;42.686;23.362;2022-11-15T13:58:54;71.18;;;46.85;;
41687;SDS011;27371;42.686;23.362;2022-11-15T14:01:20;75.72;;;47.17;;
41687;SDS011;27371;42.686;23.362;2022-11-15T14:03:51;75.78;;;48.55;;
41687;SDS011;27371;42.686;23.362;2022-11-15T14:06:21;75.55;;;49.40;;
41687;SDS011;27371;42.686;23.362;2022-11-15T14:11:24;71.05;;;48.67;;
41687;SDS011;27371;42.686;23.362;2022-11-15T14:16:53;74.57;;;48.72;;
41687;SDS011;27371;42.686;23.362;2022-11-15T14:25:03;70.68;;;44.08;;
41687;SDS011;27371;42.686;23.362;2022-11-15T14:27:32;66.65;;;43.40;;
41687;SDS011;27371;42.686;23.362;2022-11-15T14:29:58;61.38;;;42.75;;
41687;SDS011;27371;42.686;23.362;2022-11-15T14:32:24;70.43;;;46.65;;
41687;SDS011;27371;42.686;23.362;2022-11-15T14:34:59;69.72;;;46.58;;
41687;SDS011;27371;42.686;23.362;2022-11-15T14:37:28;80.93;;;48.53;;
41687;SDS011;27371;42.686;23.362;2022-11-15T14:39:58;72.53;;;47.33;;
41687;SDS011;27371;42.686;23.362;2022-11-15T14:42:24;72.88;;;47.85;;
41687;SDS011;27371;42.686;23.362;2022-11-15T14:44:49;73.90;;;47.85;;
41687;SDS011;27371;42.686;23.362;2022-11-15T14:47:16;77.28;;;47.33;;
41687;SDS011;27371;42.686;23.362;2022-11-15T14:49:41;87.50;;;52.92;;
41687;SDS011;27371;42.686;23.362;2022-11-15T14:54:51;73.40;;;50.53;;
41687;SDS011;27371;42.686;23.362;2022-11-15T14:57:17;84.65;;;51.33;;
41687;SDS011;27371;42.686;23.362;2022-11-15T14:59:42;77.78;;;50.45;;
41687;SDS011;27371;42.686;23.362;2022-11-15T15:02:10;76.93;;;50.38;;
41687;SDS011;27371;42.686;23.362;2022-11-15T15:04:46;84.38;;;52.38;;
41687;SDS011;27371;42.686;23.362;2022-11-15T15:07:12;82.93;;;53.70;;
41687;SDS011;27371;42.686;23.362;2022-11-15T15:09:37;85.10;;;54.55;;
41687;SDS011;27371;42.686;23.362;2022-11-15T15:12:04;76.95;;;50.60;;
41687;SDS011;27371;42.686;23.362;2022-11-15T15:14:31;67.32;;;47.33;;
41687;SDS011;27371;42.686;23.362;2022-11-15T15:16:57;70.88;;;46.75;;
41687;SDS011;27371;42.686;23.362;2022-11-15T15:19:23;71.15;;;44.67;;
41687;SDS011;27371;42.686;23.362;2022-11-15T15:21:48;75.50;;;46.75;;
41687;SDS011;27371;42.686;23.362;2022-11-15T15:24:14;68.93;;;45.58;;
41687;SDS011;27371;42.686;23.362;2022-11-15T15:26:40;66.55;;;44.35;;
41687;SDS011;27371;42.686;23.362;2022-11-15T15:29:06;68.30;;;45.75;;
41687;SDS011;27371;42.686;23.362;2022-11-15T15:31:33;70.07;;;45.30;;
41687;SDS011;27371;42.686;23.362;2022-11-15T15:33:59;76.68;;;46.97;;
41687;SDS011;27371;42.686;23.362;2022-11-15T15:36:24;74.05;;;45.85;;
41687;SDS011;27371;42.686;23.362;2022-11-15T15:38:50;77.15;;;47.75;;
41687;SDS011;27371;42.686;23.362;2022-11-15T15:41:16;73.00;;;45.83;;
41687;SDS011;27371;42.686;23.362;2022-11-15T15:43:41;69.53;;;46.08;;
41687;SDS011;27371;42.686;23.362;2022-11-15T15:46:11;69.35;;;46.95;;
41687;SDS011;27371;42.686;23.362;2022-11-15T15:48:38;72.22;;;46.78;;
41687;SDS011;27371;42.686;23.362;2022-11-15T15:51:04;77.65;;;45.75;;
41687;SDS011;27371;42.686;23.362;2022-11-15T15:53:31;75.38;;;47.03;;
41687;SDS011;27371;42.686;23.362;2022-11-15T15:55:56;77.05;;;48.65;;
41687;SDS011;27371;42.686;23.362;2022-11-15T15:58:22;72.45;;;49.55;;
41687;SDS011;27371;42.686;23.362;2022-11-15T16:00:47;85.07;;;50.53;;
41687;SDS011;27371;42.686;23.362;2022-11-15T16:03:16;97.13;;;56.83;;
41687;SDS011;27371;42.686;23.362;2022-11-15T16:05:42;97.90;;;58.65;;
41687;SDS011;27371;42.686;23.362;2022-11-15T16:08:18;104.53;;;63.70;;
41687;SDS011;27371;42.686;23.362;2022-11-15T16:10:44;102.65;;;66.25;;
41687;SDS011;27371;42.686;23.362;2022-11-15T16:13:10;96.28;;;61.17;;
41687;SDS011;27371;42.686;23.362;2022-11-15T16:15:35;99.10;;;61.65;;
41687;SDS011;27371;42.686;23.362;2022-11-15T16:18:02;94.90;;;58.92;;
41687;SDS011;27371;42.686;23.362;2022-11-15T16:20:39;96.75;;;57.50;;
41687;SDS011;27371;42.686;23.362;2022-11-15T16:23:08;86.13;;;56.28;;
41687;SDS011;27371;42.686;23.362;2022-11-15T16:28:20;88.43;;;56.55;;
41687;SDS011;27371;42.686;23.362;2022-11-15T16:30:59;88.13;;;55.17;;
41687;SDS011;27371;42.686;23.362;2022-11-15T16:33:25;93.65;;;59.58;;
41687;SDS011;27371;42.686;23.362;2022-11-15T16:35:51;91.80;;;56.03;;
41687;SDS011;27371;42.686;23.362;2022-11-15T16:38:17;94.07;;;59.10;;